EXS2KC EGCC-LEMH
Flight info
| Callsign | EXS2KC |
|---|---|
| Flight time | N/A |
| Altitude | 35000 |
| Route | SANBA N859 UTUXA UN859 SOPIL DCT BALAN DCT EVPOK DCT NARAK DCT GAI DCT LOMRA DCT ROCAN DCT GEANT DCT GIR DCT SALON DCT SULID DCT DIPES N727 SARGO |
| Aircraft | A21N/M-SDE3FGHIRWY/LB1 |
Departure
| Time | N/A |
|---|---|
| Airport | Manchester Airport (EGCC) |
Arrival
| Time | 2026-04-11 11:46 |
|---|---|
| Airport | Menorca Airport (LEMH) |
| Time | Latitude | Longitude | Altitude | Speed | Heading |
|---|---|---|---|---|---|
| 2026-04-11 11:19 | 42.02450 | 2.74436 | 36961 ft | 427 kts | 171° |
| 2026-04-11 11:20 | 41.92399 | 2.79056 | 36916 ft | 436 kts | 158° |
| 2026-04-11 11:20 | 41.87566 | 2.82601 | 36915 ft | 439 kts | 152° |
| 2026-04-11 11:21 | 41.82734 | 2.87073 | 36912 ft | 440 kts | 148° |
| 2026-04-11 11:21 | 41.77949 | 2.91667 | 36909 ft | 440 kts | 148° |
| 2026-04-11 11:22 | 41.72956 | 2.96436 | 36907 ft | 439 kts | 148° |
| 2026-04-11 11:22 | 41.67983 | 3.01169 | 36907 ft | 439 kts | 148° |
| 2026-04-11 11:22 | 41.65501 | 3.03528 | 36773 ft | 439 kts | 148° |
| 2026-04-11 11:23 | 41.63034 | 3.05865 | 36523 ft | 437 kts | 149° |
| 2026-04-11 11:23 | 41.60486 | 3.08050 | 36128 ft | 433 kts | 153° |
| 2026-04-11 11:23 | 41.57901 | 3.10081 | 35303 ft | 439 kts | 154° |
| 2026-04-11 11:23 | 41.55248 | 3.12124 | 34328 ft | 447 kts | 154° |
| 2026-04-11 11:24 | 41.52561 | 3.14195 | 33383 ft | 451 kts | 154° |
| 2026-04-11 11:24 | 41.49866 | 3.16283 | 32479 ft | 453 kts | 153° |
| 2026-04-11 11:24 | 41.47152 | 3.18391 | 31556 ft | 456 kts | 153° |
| 2026-04-11 11:24 | 41.44417 | 3.20522 | 30686 ft | 457 kts | 153° |
| 2026-04-11 11:25 | 41.41703 | 3.22642 | 30152 ft | 450 kts | 153° |
| 2026-04-11 11:25 | 41.39057 | 3.24712 | 29695 ft | 443 kts | 153° |
| 2026-04-11 11:25 | 41.36441 | 3.26755 | 29259 ft | 435 kts | 153° |
| 2026-04-11 11:25 | 41.33837 | 3.28785 | 28715 ft | 431 kts | 152° |
| 2026-04-11 11:26 | 41.31258 | 3.30794 | 28125 ft | 428 kts | 152° |
| 2026-04-11 11:26 | 41.28703 | 3.32781 | 27538 ft | 424 kts | 152° |
| 2026-04-11 11:26 | 41.26206 | 3.34724 | 26961 ft | 421 kts | 152° |
| 2026-04-11 11:26 | 41.23706 | 3.36667 | 26389 ft | 418 kts | 152° |
| 2026-04-11 11:27 | 41.21249 | 3.38575 | 25911 ft | 413 kts | 152° |
| 2026-04-11 11:27 | 41.18787 | 3.40485 | 25400 ft | 410 kts | 152° |
| 2026-04-11 11:27 | 41.16434 | 3.42310 | 24875 ft | 407 kts | 152° |
| 2026-04-11 11:27 | 41.13980 | 3.44211 | 24317 ft | 405 kts | 151° |
| 2026-04-11 11:28 | 41.11568 | 3.46076 | 23781 ft | 403 kts | 151° |
| 2026-04-11 11:28 | 41.09158 | 3.47940 | 23267 ft | 400 kts | 151° |
| 2026-04-11 11:28 | 41.06768 | 3.49788 | 22776 ft | 398 kts | 151° |
| 2026-04-11 11:28 | 41.04414 | 3.51607 | 22318 ft | 394 kts | 151° |
| 2026-04-11 11:29 | 40.99721 | 3.55227 | 21407 ft | 386 kts | 152° |
| 2026-04-11 11:29 | 40.97419 | 3.57002 | 20956 ft | 383 kts | 152° |
| 2026-04-11 11:29 | 40.95139 | 3.58756 | 20508 ft | 379 kts | 152° |
| 2026-04-11 11:30 | 40.92869 | 3.60499 | 20049 ft | 376 kts | 152° |
| 2026-04-11 11:30 | 40.90628 | 3.62219 | 19591 ft | 373 kts | 152° |
| 2026-04-11 11:30 | 40.88396 | 3.63933 | 19098 ft | 370 kts | 152° |
| 2026-04-11 11:30 | 40.86151 | 3.65654 | 18506 ft | 371 kts | 153° |
| 2026-04-11 11:31 | 40.83954 | 3.67338 | 18006 ft | 369 kts | 153° |
| 2026-04-11 11:31 | 40.81744 | 3.69030 | 17530 ft | 366 kts | 153° |
| 2026-04-11 11:31 | 40.79565 | 3.70694 | 17061 ft | 364 kts | 152° |
| 2026-04-11 11:31 | 40.77383 | 3.72360 | 16597 ft | 361 kts | 152° |
| 2026-04-11 11:32 | 40.75217 | 3.74012 | 16105 ft | 359 kts | 152° |
| 2026-04-11 11:32 | 40.73068 | 3.75652 | 15644 ft | 357 kts | 152° |
| 2026-04-11 11:32 | 40.70920 | 3.77290 | 15187 ft | 355 kts | 152° |
| 2026-04-11 11:32 | 40.68781 | 3.78920 | 14704 ft | 352 kts | 152° |
| 2026-04-11 11:33 | 40.66686 | 3.80515 | 14272 ft | 349 kts | 152° |
| 2026-04-11 11:33 | 40.64580 | 3.82118 | 13823 ft | 347 kts | 151° |
| 2026-04-11 11:33 | 40.62491 | 3.83706 | 13360 ft | 345 kts | 151° |
| 2026-04-11 11:33 | 40.60499 | 3.85219 | 12941 ft | 343 kts | 151° |
| 2026-04-11 11:34 | 40.58424 | 3.86795 | 12497 ft | 341 kts | 150° |
| 2026-04-11 11:34 | 40.56368 | 3.88354 | 12055 ft | 339 kts | 150° |
| 2026-04-11 11:34 | 40.54342 | 3.89891 | 11649 ft | 337 kts | 150° |
| 2026-04-11 11:34 | 40.52329 | 3.91417 | 11215 ft | 336 kts | 150° |
| 2026-04-11 11:35 | 40.50317 | 3.92939 | 10798 ft | 334 kts | 150° |
| 2026-04-11 11:35 | 40.48304 | 3.94463 | 10341 ft | 333 kts | 150° |
| 2026-04-11 11:35 | 40.46331 | 3.95953 | 10103 ft | 323 kts | 149° |
| 2026-04-11 11:35 | 40.44421 | 3.97397 | 10020 ft | 308 kts | 149° |
| 2026-04-11 11:36 | 40.42587 | 3.98782 | 9938 ft | 295 kts | 149° |
| 2026-04-11 11:36 | 40.40841 | 4.00101 | 9637 ft | 292 kts | 149° |
| 2026-04-11 11:36 | 40.39091 | 4.01422 | 9278 ft | 291 kts | 149° |
| 2026-04-11 11:36 | 40.37332 | 4.02749 | 8914 ft | 289 kts | 149° |
| 2026-04-11 11:37 | 40.35587 | 4.04066 | 8552 ft | 287 kts | 149° |
| 2026-04-11 11:37 | 40.33870 | 4.05358 | 8210 ft | 284 kts | 149° |
| 2026-04-11 11:37 | 40.32160 | 4.06646 | 7867 ft | 281 kts | 149° |
| 2026-04-11 11:37 | 40.30481 | 4.07908 | 7530 ft | 279 kts | 149° |
| 2026-04-11 11:38 | 40.28794 | 4.09175 | 7189 ft | 277 kts | 149° |
| 2026-04-11 11:38 | 40.27141 | 4.10415 | 6839 ft | 275 kts | 149° |
| 2026-04-11 11:38 | 40.25492 | 4.11652 | 6507 ft | 272 kts | 149° |
| 2026-04-11 11:38 | 40.23847 | 4.12885 | 6188 ft | 270 kts | 149° |
| 2026-04-11 11:39 | 40.22234 | 4.14095 | 5838 ft | 267 kts | 149° |
| 2026-04-11 11:39 | 40.20633 | 4.15296 | 5505 ft | 264 kts | 149° |
| 2026-04-11 11:39 | 40.19058 | 4.16476 | 5195 ft | 261 kts | 149° |
| 2026-04-11 11:39 | 40.17483 | 4.17655 | 4894 ft | 258 kts | 149° |
| 2026-04-11 11:40 | 40.15930 | 4.18817 | 4580 ft | 256 kts | 149° |
| 2026-04-11 11:40 | 40.14395 | 4.19965 | 4266 ft | 252 kts | 149° |
| 2026-04-11 11:40 | 40.12942 | 4.21050 | 4078 ft | 244 kts | 149° |
| 2026-04-11 11:40 | 40.11485 | 4.22136 | 3946 ft | 234 kts | 149° |
| 2026-04-11 11:41 | 40.10108 | 4.23164 | 3806 ft | 225 kts | 149° |
| 2026-04-11 11:41 | 40.08781 | 4.24155 | 3684 ft | 214 kts | 149° |
| 2026-04-11 11:41 | 40.07532 | 4.25088 | 3657 ft | 196 kts | 149° |
| 2026-04-11 11:41 | 40.06299 | 4.25666 | 3505 ft | 187 kts | 171° |
| 2026-04-11 11:42 | 40.04988 | 4.25683 | 3390 ft | 187 kts | 182° |
| 2026-04-11 11:42 | 40.03698 | 4.25476 | 3270 ft | 188 kts | 187° |
| 2026-04-11 11:42 | 40.02401 | 4.25200 | 3145 ft | 187 kts | 187° |
| 2026-04-11 11:42 | 40.01120 | 4.24922 | 2968 ft | 186 kts | 187° |
| 2026-04-11 11:43 | 39.99842 | 4.24651 | 2725 ft | 185 kts | 186° |
| 2026-04-11 11:43 | 39.98579 | 4.24389 | 2488 ft | 183 kts | 186° |
| 2026-04-11 11:43 | 39.97335 | 4.24133 | 2245 ft | 177 kts | 186° |
| 2026-04-11 11:43 | 39.96161 | 4.23891 | 1998 ft | 162 kts | 185° |
| 2026-04-11 11:44 | 39.95102 | 4.23671 | 1791 ft | 149 kts | 184° |
| 2026-04-11 11:44 | 39.94075 | 4.23462 | 1636 ft | 145 kts | 184° |
| 2026-04-11 11:44 | 39.93103 | 4.23264 | 1451 ft | 141 kts | 184° |
| 2026-04-11 11:44 | 39.92125 | 4.23064 | 1269 ft | 141 kts | 185° |
| 2026-04-11 11:45 | 39.91146 | 4.22864 | 1087 ft | 140 kts | 185° |
| 2026-04-11 11:45 | 39.90184 | 4.22666 | 901 ft | 140 kts | 185° |
| 2026-04-11 11:45 | 39.89226 | 4.22469 | 716 ft | 140 kts | 185° |
| 2026-04-11 11:45 | 39.88267 | 4.22273 | 534 ft | 140 kts | 185° |
| 2026-04-11 11:46 | 39.87303 | 4.22082 | 358 ft | 140 kts | 185° |
| 2026-04-11 11:46 | 39.86371 | 4.21892 | 287 ft | 121 kts | 188° |
| 2026-04-11 11:46 | 39.85754 | 4.21770 | 281 ft | 53 kts | 189° |
| 2026-04-11 11:46 | 39.85556 | 4.21774 | 277 ft | 17 kts | 164° |
| 2026-04-11 11:47 | 39.85444 | 4.21827 | 274 ft | 18 kts | 158° |
| 2026-04-11 11:47 | 39.85398 | 4.21892 | 272 ft | 10 kts | 85° |
| 2026-04-11 11:47 | 39.85455 | 4.21940 | 273 ft | 10 kts | 9° |
| 2026-04-11 11:47 | 39.85543 | 4.21958 | 275 ft | 14 kts | 9° |
| 2026-04-11 11:48 | 39.85658 | 4.21982 | 276 ft | 18 kts | 7° |
| 2026-04-11 11:48 | 39.85796 | 4.22009 | 279 ft | 21 kts | 9° |
| 2026-04-11 11:48 | 39.85954 | 4.22046 | 281 ft | 24 kts | 10° |
| 2026-04-11 11:48 | 39.86124 | 4.22077 | 280 ft | 20 kts | 9° |
| 2026-04-11 11:49 | 39.86190 | 4.22149 | 277 ft | 14 kts | 96° |
| 2026-04-11 11:49 | 39.86209 | 4.22258 | 275 ft | 11 kts | 21° |
| 2026-04-11 11:49 | 39.86290 | 4.22280 | 275 ft | 12 kts | 9° |
| 2026-04-11 11:49 | 39.86349 | 4.22293 | 275 ft | 7 kts | 9° |
| 2026-04-11 11:50 | 39.86378 | 4.22325 | 274 ft | 4 kts | 79° |
| 2026-04-11 11:50 | 39.86373 | 4.22372 | 273 ft | 6 kts | 99° |
| 2026-04-11 11:50 | 39.86371 | 4.22396 | 273 ft | 0 kts | 99° |